Time;durP1;ratioP1;P1;durP2;ratioP2;P2;SDS_P1;SDS_P2;PMS_P1;PMS_P2;Temp;Humidity;BMP_temperature;BMP_pressure;BME280_temperature;BME280_humidity;BME280_pressure;Samples;Min_cycle;Max_cycle;Signal;HPM_P1;HPM_P2
2024/01/16 00:01:06;;;;;;;7.90;5.67;;;0.50;99.90;;;;;;5080741;28;20275;-42
2024/01/16 00:03:32;;;;;;;8.07;6.13;;;0.00;20.80;;;;;;5098535;28;20501;-43
2024/01/16 00:05:57;;;;;;;8.90;5.10;;;-0.20;1.00;;;;;;5098325;28;20780;-43
2024/01/16 00:08:23;;;;;;;7.43;6.23;;;-0.40;1.00;;;;;;5098270;28;20596;-42
2024/01/16 00:10:50;;;;;;;8.27;6.10;;;-0.60;99.90;;;;;;5098526;28;20207;-42
2024/01/16 00:13:15;;;;;;;8.23;5.10;;;-0.70;99.90;;;;;;5097995;28;20495;-41
2024/01/16 00:15:43;;;;;;;9.40;6.33;;;-0.90;1.00;;;;;;5078953;28;20430;-43
2024/01/16 00:18:09;;;;;;;9.90;6.17;;;-0.90;1.00;;;;;;5096760;28;20313;-45
2024/01/16 00:20:35;;;;;;;7.77;6.53;;;-1.00;97.00;;;;;;5098530;28;20427;-43
2024/01/16 00:23:01;;;;;;;9.20;6.40;;;-1.00;99.90;;;;;;5098087;28;20589;-43
2024/01/16 00:25:26;;;;;;;5.83;5.30;;;-1.10;99.90;;;;;;5097702;28;20490;-44
2024/01/16 00:27:52;;;;;;;6.70;5.60;;;-1.10;99.90;;;;;;5096996;28;20219;-43
2024/01/16 00:30:18;;;;;;;7.27;6.10;;;-1.10;99.90;;;;;;5097668;28;20202;-43
2024/01/16 00:32:44;;;;;;;6.93;5.30;;;-1.10;99.90;;;;;;5096622;28;20238;-44
2024/01/16 00:35:09;;;;;;;9.20;6.10;;;-1.10;99.90;;;;;;5096656;28;20434;-45
2024/01/16 00:37:38;;;;;;;10.53;6.27;;;-1.10;99.90;;;;;;5105141;28;20521;-44
2024/01/16 00:40:04;;;;;;;10.20;6.33;;;-1.10;99.90;;;;;;5116330;28;20299;-42
2024/01/16 00:42:31;;;;;;;9.90;6.03;;;-1.10;99.90;;;;;;5115255;28;20421;-42
2024/01/16 00:44:58;;;;;;;11.80;6.10;;;-1.10;99.90;;;;;;5114283;28;20561;-42
2024/01/16 00:47:24;;;;;;;8.90;5.90;;;-1.10;99.90;;;;;;5114463;28;20664;-44
2024/01/16 00:49:49;;;;;;;7.37;5.87;;;-1.20;99.90;;;;;;5115797;28;20425;-42
2024/01/16 00:52:15;;;;;;;10.30;6.37;;;-1.30;99.90;;;;;;5116292;28;20425;-42
2024/01/16 00:54:41;;;;;;;7.93;5.43;;;-1.20;99.90;;;;;;5116598;28;20298;-43
2024/01/16 00:57:07;;;;;;;9.73;5.87;;;-1.30;99.90;;;;;;5116113;28;20241;-43
2024/01/16 00:59:33;;;;;;;7.80;5.20;;;-1.30;1.00;;;;;;5115688;28;20426;-42
2024/01/16 01:01:59;;;;;;;9.50;6.77;;;-1.30;1.00;;;;;;5114776;28;20191;-42
2024/01/16 01:04:25;;;;;;;10.40;6.73;;;-1.20;99.90;;;;;;5113846;28;20283;-42
2024/01/16 01:06:50;;;;;;;8.77;5.97;;;-1.20;99.90;;;;;;5115764;28;20421;-46
2024/01/16 01:09:16;;;;;;;7.77;5.57;;;-1.30;99.90;;;;;;5115005;28;20238;-44
2024/01/16 01:11:42;;;;;;;6.60;5.20;;;-1.30;99.90;;;;;;5116265;28;20171;-42
2024/01/16 01:14:08;;;;;;;9.33;5.30;;;-1.30;99.90;;;;;;5115908;28;20441;-42
2024/01/16 01:16:33;;;;;;;13.10;6.10;;;-1.20;99.90;;;;;;5116840;28;20195;-44
2024/01/16 01:18:59;;;;;;;7.90;5.50;;;-1.20;99.90;;;;;;5117021;28;20176;-42
2024/01/16 01:21:24;;;;;;;7.80;5.17;;;-1.20;99.90;;;;;;5117089;28;20347;-41
2024/01/16 01:23:50;;;;;;;8.80;5.80;;;-1.20;99.90;;;;;;5117021;28;20248;-42
2024/01/16 01:26:19;;;;;;;8.70;5.27;;;-1.20;99.90;;;;;;5116540;28;20299;-44
2024/01/16 01:28:46;;;;;;;7.33;5.70;;;-1.20;99.90;;;;;;5116701;28;20187;-44
2024/01/16 01:31:12;;;;;;;6.40;5.30;;;-1.20;99.90;;;;;;5116781;28;20425;-42
2024/01/16 01:33:38;;;;;;;9.40;6.00;;;-1.10;1.60;;;;;;5116807;28;20485;-45
2024/01/16 01:36:03;;;;;;;9.80;6.00;;;-1.10;1.00;;;;;;5116626;28;20513;-44
2024/01/16 01:38:29;;;;;;;6.70;5.00;;;-1.20;1.00;;;;;;5114496;28;20434;-42
2024/01/16 01:40:54;;;;;;;11.10;6.33;;;-1.10;1.00;;;;;;5113400;28;20490;-42
2024/01/16 01:43:21;;;;;;;10.60;5.70;;;-1.20;1.00;;;;;;5113263;28;20576;-42
2024/01/16 01:46:16;;;;;;;7.07;4.90;;;-1.10;1.00;;;;;;5113796;28;20222;-43
2024/01/16 01:48:42;;;;;;;8.47;5.80;;;-1.10;1.00;;;;;;5113941;28;20409;-42
2024/01/16 01:51:13;;;;;;;6.80;4.63;;;-1.10;30.00;;;;;;5113717;28;20951;-43
2024/01/16 01:53:39;;;;;;;11.27;6.17;;;-1.10;1.00;;;;;;5115425;28;20499;-46
2024/01/16 01:56:08;;;;;;;7.43;5.93;;;-1.10;1.00;;;;;;5116873;28;20832;-42
2024/01/16 01:58:34;;;;;;;10.40;5.70;;;-1.20;1.00;;;;;;5116199;28;20416;-44
2024/01/16 02:01:01;;;;;;;9.00;5.00;;;-1.20;1.00;;;;;;5115565;28;20405;-42
2024/01/16 02:03:29;;;;;;;8.23;5.70;;;-1.20;1.00;;;;;;5115981;28;20787;-43
2024/01/16 02:05:55;;;;;;;11.20;5.80;;;-1.20;1.00;;;;;;5115449;28;20515;-43
2024/01/16 02:08:22;;;;;;;8.93;5.90;;;-1.20;1.00;;;;;;5116346;28;20421;-45
2024/01/16 02:10:47;;;;;;;7.93;5.40;;;-1.20;1.00;;;;;;5116335;28;20714;-42
2024/01/16 02:13:13;;;;;;;7.50;5.60;;;-1.20;23.00;;;;;;5115157;28;20421;-44
2024/01/16 02:15:41;;;;;;;8.10;5.60;;;-1.10;1.00;;;;;;5116349;28;20264;-47
2024/01/16 02:18:07;;;;;;;7.70;5.40;;;-1.20;1.00;;;;;;5115266;28;20179;-44
2024/01/16 02:20:32;;;;;;;7.03;4.90;;;-1.30;1.00;;;;;;5116270;28;20417;-42
2024/01/16 02:23:00;;;;;;;9.87;6.07;;;-1.20;1.00;;;;;;5116283;28;20417;-43
2024/01/16 02:25:26;;;;;;;7.10;5.57;;;-1.20;1.00;;;;;;5114712;28;20222;-44
2024/01/16 02:27:52;;;;;;;7.03;5.87;;;-1.30;99.90;;;;;;5116295;28;20811;-40
2024/01/16 02:30:18;;;;;;;8.83;5.73;;;-1.30;1.00;;;;;;5114850;28;20458;-44
2024/01/16 02:32:43;;;;;;;8.40;5.70;;;-1.30;1.00;;;;;;5115779;28;20513;-41
2024/01/16 02:35:09;;;;;;;12.10;6.43;;;-1.30;1.00;;;;;;5115825;28;20231;-47
2024/01/16 02:37:35;;;;;;;8.30;5.20;;;-1.20;1.00;;;;;;5116207;28;20180;-42
2024/01/16 02:40:05;;;;;;;7.23;5.30;;;-1.20;99.90;;;;;;5115834;28;20646;-42
2024/01/16 02:42:32;;;;;;;6.90;5.37;;;-1.30;99.90;;;;;;5115683;28;20577;-42
2024/01/16 02:44:57;;;;;;;7.13;5.00;;;-1.30;99.90;;;;;;5114922;28;20892;-43
2024/01/16 02:47:23;;;;;;;8.50;5.60;;;-1.20;99.90;;;;;;5116035;28;20429;-42
2024/01/16 02:49:48;;;;;;;7.60;5.47;;;-1.20;1.00;;;;;;5114673;28;20229;-41
2024/01/16 02:52:14;;;;;;;7.43;5.27;;;-1.30;22.80;;;;;;5115993;28;20202;-45
2024/01/16 02:54:40;;;;;;;5.47;4.17;;;-1.30;99.90;;;;;;5118282;28;20240;-39
2024/01/16 02:57:05;;;;;;;11.33;5.53;;;-1.10;1.00;;;;;;5118844;28;20432;-41
2024/01/16 02:59:31;;;;;;;10.63;6.20;;;-0.40;1.00;;;;;;5119586;28;20426;-43
2024/01/16 03:01:57;;;;;;;6.80;4.40;;;-0.40;81.80;;;;;;5119237;28;20566;-43
2024/01/16 03:04:23;;;;;;;8.03;5.33;;;-0.40;99.90;;;;;;5119149;28;20575;-44
2024/01/16 03:06:48;;;;;;;5.50;4.63;;;-0.50;1.00;;;;;;5118430;28;20430;-42
2024/01/16 03:09:14;;;;;;;6.77;5.13;;;-0.60;1.00;;;;;;5119495;28;20171;-42
2024/01/16 03:11:39;;;;;;;6.23;4.90;;;-0.70;1.00;;;;;;5118724;28;20282;-41
2024/01/16 03:14:05;;;;;;;6.53;5.20;;;-0.90;1.00;;;;;;5119543;28;20286;-43
2024/01/16 03:16:31;;;;;;;8.87;5.30;;;-1.10;99.90;;;;;;5119269;28;20183;-43
2024/01/16 03:18:57;;;;;;;8.80;4.73;;;-1.40;1.00;;;;;;5116646;28;20171;-41
2024/01/16 03:21:23;;;;;;;5.83;4.90;;;-1.40;48.00;;;;;;5097912;28;20505;-46
2024/01/16 03:23:48;;;;;;;6.37;4.60;;;-1.50;51.20;;;;;;5116145;28;20180;-45
2024/01/16 03:26:14;;;;;;;9.23;4.87;;;-1.50;99.90;;;;;;5114835;28;20277;-43
2024/01/16 03:28:40;;;;;;;9.30;4.43;;;-1.60;99.90;;;;;;5116247;28;20186;-42
2024/01/16 03:31:06;;;;;;;7.03;5.40;;;-1.60;99.90;;;;;;5115543;28;20432;-41
2024/01/16 03:33:32;;;;;;;9.33;5.53;;;-1.60;99.90;;;;;;5116932;28;20416;-43
2024/01/16 03:35:57;;;;;;;8.43;5.63;;;-1.60;99.90;;;;;;5118989;28;20245;-42
2024/01/16 03:38:23;;;;;;;8.23;4.73;;;-1.60;96.60;;;;;;5118970;28;20192;-43
2024/01/16 03:40:48;;;;;;;8.10;5.10;;;-1.60;99.90;;;;;;5118149;28;20259;-44
2024/01/16 03:43:14;;;;;;;6.83;4.77;;;-1.70;99.90;;;;;;5116818;28;20234;-42
2024/01/16 03:45:39;;;;;;;5.17;4.60;;;-1.70;67.60;;;;;;5118900;28;20276;-42
2024/01/16 03:48:05;;;;;;;5.10;4.03;;;-1.70;1.00;;;;;;5118627;28;20404;-43
2024/01/16 03:50:30;;;;;;;6.10;4.63;;;-1.80;1.00;;;;;;5118486;28;20222;-41
2024/01/16 03:52:56;;;;;;;7.60;4.90;;;-2.00;5.40;;;;;;5116491;28;20172;-41
2024/01/16 03:55:22;;;;;;;7.37;4.90;;;-2.00;99.90;;;;;;5116872;28;20180;-44
2024/01/16 03:57:47;;;;;;;7.60;5.03;;;-2.10;99.90;;;;;;5115876;28;20403;-43
2024/01/16 04:00:13;;;;;;;7.60;4.80;;;-2.10;99.90;;;;;;5117356;28;20179;-42
2024/01/16 04:02:39;;;;;;;7.00;5.30;;;-2.20;99.90;;;;;;5116377;28;20179;-44
2024/01/16 04:05:05;;;;;;;7.13;4.50;;;-2.20;99.90;;;;;;5116333;28;20818;-41
2024/01/16 04:07:31;;;;;;;5.90;5.10;;;-2.30;1.00;;;;;;5117225;28;20321;-43
2024/01/16 04:09:56;;;;;;;6.13;4.80;;;-2.30;1.00;;;;;;5117583;28;20592;-42
2024/01/16 04:12:22;;;;;;;8.53;5.50;;;-2.40;1.00;;;;;;5116733;28;20168;-41
2024/01/16 04:14:47;;;;;;;7.20;5.30;;;-2.40;1.00;;;;;;5115079;28;20549;-41
2024/01/16 04:17:13;;;;;;;8.00;4.93;;;-2.30;1.00;;;;;;5118309;28;20252;-43
2024/01/16 04:19:39;;;;;;;6.97;4.97;;;-2.30;1.00;;;;;;5117781;28;20266;-43
2024/01/16 04:22:05;;;;;;;6.20;4.30;;;-2.30;1.00;;;;;;5116849;28;20180;-42
2024/01/16 04:24:30;;;;;;;9.60;5.40;;;-2.30;1.00;;;;;;5115958;28;20409;-42
2024/01/16 04:26:56;;;;;;;6.37;4.70;;;-2.30;1.00;;;;;;5117154;28;20554;-45
2024/01/16 04:29:21;;;;;;;7.70;4.90;;;-2.30;1.00;;;;;;5117425;28;20184;-43
2024/01/16 04:31:47;;;;;;;8.23;4.87;;;-2.30;1.00;;;;;;5116510;28;20526;-43
2024/01/16 04:34:13;;;;;;;6.80;4.27;;;-2.30;99.90;;;;;;5115740;28;20233;-43
2024/01/16 04:36:38;;;;;;;5.13;4.20;;;-2.30;1.00;;;;;;5114753;28;20443;-43
2024/01/16 04:39:04;;;;;;;6.30;4.50;;;-2.30;99.90;;;;;;5114897;28;20189;-44
2024/01/16 04:41:29;;;;;;;6.23;4.83;;;-2.30;99.90;;;;;;5115435;28;20190;-42
2024/01/16 04:43:55;;;;;;;6.13;4.67;;;-2.30;99.90;;;;;;5116510;28;20238;-41
2024/01/16 04:46:20;;;;;;;8.10;4.90;;;-2.30;99.90;;;;;;5114944;28;20242;-42
2024/01/16 04:48:46;;;;;;;7.70;4.90;;;-2.30;99.90;;;;;;5115652;28;20278;-42
2024/01/16 04:51:11;;;;;;;11.33;5.10;;;-2.30;62.90;;;;;;5113288;28;20320;-40
2024/01/16 04:53:37;;;;;;;6.10;4.33;;;-2.40;1.00;;;;;;5115615;28;20180;-42
2024/01/16 04:56:03;;;;;;;5.93;4.37;;;-2.50;99.90;;;;;;5116467;28;20522;-41
2024/01/16 04:58:28;;;;;;;7.83;4.53;;;-2.50;99.90;;;;;;5114656;28;20533;-41
2024/01/16 05:00:54;;;;;;;7.07;4.63;;;-2.50;99.90;;;;;;5113821;28;20200;-42
2024/01/16 05:03:19;;;;;;;9.10;5.10;;;-2.50;99.90;;;;;;5114640;28;20522;-42
2024/01/16 05:05:45;;;;;;;6.23;5.50;;;-2.50;58.00;;;;;;5113652;28;20218;-41
2024/01/16 05:08:10;;;;;;;7.27;5.07;;;-2.50;1.00;;;;;;5111828;28;20590;-43
2024/01/16 05:10:36;;;;;;;6.93;5.07;;;-2.60;1.00;;;;;;5111464;28;20573;-44
2024/01/16 05:13:01;;;;;;;12.13;7.77;;;-2.70;99.90;;;;;;5113452;28;20576;-43
2024/01/16 05:15:27;;;;;;;10.10;7.87;;;-2.70;99.90;;;;;;5114410;28;20179;-45
2024/01/16 05:17:53;;;;;;;7.17;5.57;;;-2.70;99.90;;;;;;5115062;28;20263;-42
2024/01/16 05:20:19;;;;;;;8.00;5.07;;;-2.70;99.90;;;;;;5112026;28;20278;-41
2024/01/16 05:22:44;;;;;;;9.07;5.77;;;-2.70;99.90;;;;;;5112732;28;20546;-42
2024/01/16 05:25:10;;;;;;;8.07;5.00;;;-2.70;99.90;;;;;;5115178;28;20226;-43
2024/01/16 05:27:35;;;;;;;9.30;4.63;;;-2.70;61.30;;;;;;5115497;28;20172;-40
2024/01/16 05:30:01;;;;;;;7.67;4.43;;;-2.70;9.40;;;;;;5114104;28;20593;-43
2024/01/16 05:32:27;;;;;;;6.43;4.73;;;-2.70;99.90;;;;;;5114699;28;20557;-42
2024/01/16 05:34:52;;;;;;;5.00;4.50;;;-2.70;96.10;;;;;;5115450;28;20187;-41
2024/01/16 05:37:19;;;;;;;5.37;4.60;;;-2.70;98.70;;;;;;5115367;28;20187;-43
2024/01/16 05:39:45;;;;;;;6.57;5.23;;;-2.80;99.90;;;;;;5112544;28;20180;-42
2024/01/16 05:42:11;;;;;;;10.23;5.30;;;-2.80;1.00;;;;;;5112688;28;20925;-41
2024/01/16 05:44:37;;;;;;;9.80;6.23;;;-2.70;1.00;;;;;;5111543;28;20234;-43
2024/01/16 05:47:03;;;;;;;6.00;4.93;;;-2.80;99.90;;;;;;5112818;28;20484;-41
2024/01/16 05:49:29;;;;;;;6.00;4.33;;;-2.90;1.00;;;;;;5112561;28;20505;-43
2024/01/16 05:51:54;;;;;;;7.83;6.20;;;-2.90;1.00;;;;;;5112289;28;20413;-43
2024/01/16 05:54:20;;;;;;;8.87;5.50;;;-2.80;1.00;;;;;;5111527;28;20172;-43
2024/01/16 05:56:45;;;;;;;6.30;4.37;;;-2.80;1.00;;;;;;5112239;28;20252;-41
2024/01/16 05:59:11;;;;;;;8.23;5.17;;;-2.80;1.00;;;;;;5093209;28;20188;-40
2024/01/16 06:01:37;;;;;;;6.57;4.30;;;-2.80;99.90;;;;;;5110158;28;20457;-43
2024/01/16 06:04:03;;;;;;;5.17;4.07;;;-2.80;99.90;;;;;;5111580;28;20195;-42
2024/01/16 06:06:29;;;;;;;7.37;4.53;;;-2.90;1.00;;;;;;5110962;28;20471;-42
2024/01/16 06:08:57;;;;;;;6.17;4.47;;;-2.90;1.00;;;;;;5110686;28;20172;-43
2024/01/16 06:11:32;;;;;;;8.27;5.00;;;-2.90;99.90;;;;;;5108950;28;20476;-41
2024/01/16 06:13:58;;;;;;;7.83;5.60;;;-3.00;99.90;;;;;;5109185;28;20432;-42
2024/01/16 06:16:24;;;;;;;5.30;4.00;;;-3.00;1.00;;;;;;5108742;28;20631;-41
2024/01/16 06:18:50;;;;;;;6.57;4.00;;;-3.00;99.90;;;;;;5110106;28;20660;-41
2024/01/16 06:21:16;;;;;;;7.47;4.60;;;-3.00;99.90;;;;;;5112273;28;20501;-44
2024/01/16 06:23:42;;;;;;;6.73;4.67;;;-3.10;1.00;;;;;;5111726;28;20184;-41
2024/01/16 06:26:08;;;;;;;5.43;4.00;;;-3.10;1.00;;;;;;5110788;28;20792;-43
2024/01/16 06:28:33;;;;;;;6.57;4.23;;;-3.10;99.90;;;;;;5116192;28;20182;-43
2024/01/16 06:30:59;;;;;;;4.93;3.93;;;-3.10;99.90;;;;;;5115627;28;20413;-43
2024/01/16 06:33:25;;;;;;;4.07;3.37;;;-3.10;99.90;;;;;;5115469;28;20531;-41
2024/01/16 06:35:51;;;;;;;6.80;4.50;;;-3.10;1.00;;;;;;5109721;28;20184;-41
2024/01/16 06:38:16;;;;;;;4.73;3.73;;;-3.00;99.90;;;;;;5115757;28;20443;-41
2024/01/16 06:40:42;;;;;;;6.30;4.20;;;-3.00;1.00;;;;;;5114769;28;20529;-46
2024/01/16 06:43:08;;;;;;;8.73;4.60;;;-3.10;1.00;;;;;;5115485;28;20443;-42
2024/01/16 06:45:34;;;;;;;6.53;4.30;;;-3.00;1.00;;;;;;5117688;28;20627;-42
2024/01/16 06:47:59;;;;;;;7.27;4.93;;;-3.00;1.00;;;;;;5115644;28;20690;-41
2024/01/16 06:50:25;;;;;;;5.47;4.10;;;-3.00;1.00;;;;;;5114479;28;20408;-42
2024/01/16 06:52:50;;;;;;;6.97;3.97;;;-3.00;1.00;;;;;;5116673;28;20175;-44
2024/01/16 06:55:16;;;;;;;7.00;4.77;;;-3.00;1.00;;;;;;5114662;28;20477;-41
2024/01/16 06:57:42;;;;;;;5.30;4.13;;;-3.00;1.00;;;;;;5117365;28;20611;-44
2024/01/16 07:00:08;;;;;;;5.70;4.40;;;-3.00;99.90;;;;;;5118240;28;20600;-43
2024/01/16 07:02:33;;;;;;;8.67;5.07;;;-2.90;1.00;;;;;;5117274;28;20320;-42
2024/01/16 07:04:59;;;;;;;6.47;4.67;;;-2.90;1.00;;;;;;5115956;28;20465;-41
2024/01/16 07:07:25;;;;;;;6.20;3.87;;;-2.90;1.00;;;;;;5117390;28;20303;-41
2024/01/16 07:09:50;;;;;;;4.20;2.00;;;-2.90;1.00;;;;;;5115106;28;20400;-45
2024/01/16 07:12:16;;;;;;;14.10;9.23;;;-0.40;1.00;;;;;;5114372;28;20176;-44
2024/01/16 07:14:41;;;;;;;9.33;6.60;;;1.10;1.00;;;;;;5115194;28;20464;-44
2024/01/16 07:17:07;;;;;;;6.70;5.80;;;0.60;1.00;;;;;;5114007;28;20183;-44
2024/01/16 07:19:33;;;;;;;9.27;6.70;;;0.00;1.00;;;;;;5116678;28;20176;-42
2024/01/16 07:21:58;;;;;;;7.97;4.53;;;-0.40;1.00;;;;;;5116038;28;20191;-44
2024/01/16 07:24:24;;;;;;;6.37;4.60;;;-1.00;1.00;;;;;;5114845;28;20167;-41
2024/01/16 07:26:50;;;;;;;6.20;4.53;;;-1.50;99.90;;;;;;5114942;28;20199;-43
2024/01/16 07:29:15;;;;;;;7.83;4.60;;;-1.80;99.90;;;;;;5116120;28;20180;-44
2024/01/16 07:31:41;;;;;;;5.83;4.40;;;-2.00;1.00;;;;;;5116059;28;20211;-42
2024/01/16 07:34:07;;;;;;;6.33;5.10;;;-2.20;1.00;;;;;;5117629;28;20203;-42
2024/01/16 07:36:32;;;;;;;3.90;3.43;;;-2.20;1.00;;;;;;5116727;28;20175;-42
2024/01/16 07:38:58;;;;;;;5.40;3.90;;;-2.30;1.00;;;;;;5116865;28;20214;-44
2024/01/16 07:41:23;;;;;;;4.63;3.80;;;-2.40;99.90;;;;;;5114841;28;20484;-43
2024/01/16 07:43:49;;;;;;;4.50;3.20;;;-2.40;1.00;;;;;;5115963;28;20421;-41
2024/01/16 07:46:14;;;;;;;6.07;3.93;;;-2.40;1.00;;;;;;5115468;28;20232;-45
2024/01/16 07:48:40;;;;;;;5.13;3.73;;;-2.30;1.00;;;;;;5114271;28;20199;-44
2024/01/16 07:51:05;;;;;;;6.20;4.63;;;-2.30;99.90;;;;;;5114389;28;20176;-43
2024/01/16 07:53:31;;;;;;;4.30;3.90;;;-2.20;99.90;;;;;;5114734;28;20254;-43
2024/01/16 07:55:57;;;;;;;6.63;4.07;;;-2.20;99.90;;;;;;5115503;28;20612;-43
2024/01/16 07:58:24;;;;;;;7.57;4.83;;;-2.10;99.90;;;;;;5115812;28;20571;-42
2024/01/16 08:00:49;;;;;;;6.40;4.33;;;-2.00;99.90;;;;;;5114449;28;20460;-43
2024/01/16 08:03:15;;;;;;;7.27;5.77;;;-1.90;14.50;;;;;;5114449;28;20466;-43
2024/01/16 08:05:40;;;;;;;6.47;4.43;;;-1.90;1.00;;;;;;5114603;28;20272;-45
2024/01/16 08:08:09;;;;;;;5.27;4.20;;;-1.90;99.90;;;;;;5116515;28;20183;-42
2024/01/16 08:10:35;;;;;;;5.70;3.93;;;-1.80;1.00;;;;;;5116712;28;20223;-42
2024/01/16 08:13:01;;;;;;;6.63;4.40;;;-1.70;99.90;;;;;;5116114;28;20699;-44
2024/01/16 08:15:26;;;;;;;6.40;3.73;;;-1.70;1.00;;;;;;5115311;28;20290;-41
2024/01/16 08:17:52;;;;;;;6.20;4.40;;;-1.60;1.00;;;;;;5115590;28;20208;-43
2024/01/16 08:20:17;;;;;;;6.53;4.13;;;-1.60;99.90;;;;;;5114960;28;20319;-43
2024/01/16 08:22:43;;;;;;;5.17;4.17;;;-1.50;99.90;;;;;;5115220;28;20179;-45
2024/01/16 08:25:08;;;;;;;5.40;4.40;;;-1.50;99.90;;;;;;5115020;28;20424;-44
2024/01/16 08:27:34;;;;;;;4.03;2.70;;;-1.40;99.90;;;;;;5114840;28;20184;-40
2024/01/16 08:30:00;;;;;;;5.53;4.00;;;-1.00;1.00;;;;;;5111657;28;20262;-48
2024/01/16 08:32:27;;;;;;;6.67;4.83;;;-0.10;1.00;;;;;;5116422;28;20201;-44
2024/01/16 08:34:53;;;;;;;6.93;4.83;;;0.80;1.00;;;;;;5115886;28;20445;-42
2024/01/16 08:37:19;;;;;;;7.40;4.27;;;0.60;1.00;;;;;;5114141;28;21037;-43
2024/01/16 08:39:44;;;;;;;4.40;3.70;;;0.20;46.50;;;;;;5116265;28;20887;-42
2024/01/16 08:42:11;;;;;;;6.37;4.40;;;0.10;1.00;;;;;;5115286;28;20601;-42
2024/01/16 08:44:39;;;;;;;5.27;4.07;;;-0.10;1.00;;;;;;5116040;28;20199;-42
2024/01/16 08:47:05;;;;;;;6.10;4.27;;;-0.20;1.00;;;;;;5115175;28;20906;-43
2024/01/16 08:49:32;;;;;;;5.23;3.97;;;-0.30;1.00;;;;;;5114429;28;20456;-42
2024/01/16 08:51:58;;;;;;;5.23;3.97;;;-0.30;1.00;;;;;;5115478;28;20429;-43
2024/01/16 08:54:25;;;;;;;6.63;3.67;;;-0.20;1.00;;;;;;5113411;28;20413;-43
2024/01/16 08:56:51;;;;;;;4.67;3.57;;;-0.20;1.00;;;;;;5114548;28;20516;-44
2024/01/16 08:59:16;;;;;;;6.37;3.40;;;-0.20;1.00;;;;;;5114202;28;20657;-45
2024/01/16 09:01:42;;;;;;;5.10;3.60;;;-0.30;99.90;;;;;;5113445;28;20426;-43
2024/01/16 09:04:07;;;;;;;5.23;4.03;;;-0.30;99.90;;;;;;5116081;28;20588;-42
2024/01/16 09:06:33;;;;;;;5.60;4.00;;;-0.30;99.90;;;;;;5113973;28;20204;-43
2024/01/16 09:08:58;;;;;;;6.83;3.83;;;-0.30;99.90;;;;;;5115203;28;20192;-43
2024/01/16 09:11:24;;;;;;;4.93;3.73;;;-0.30;99.90;;;;;;5113939;28;20187;-44
2024/01/16 09:13:50;;;;;;;6.80;3.40;;;-0.20;99.90;;;;;;5114530;28;20236;-43
2024/01/16 09:16:15;;;;;;;6.80;4.80;;;-0.20;99.90;;;;;;5114204;28;20274;-47
2024/01/16 09:18:41;;;;;;;9.83;3.63;;;-0.10;99.90;;;;;;5115437;28;20257;-42
2024/01/16 09:21:06;;;;;;;5.60;3.80;;;0.10;99.90;;;;;;5114939;28;20527;-43
2024/01/16 09:23:32;;;;;;;7.50;4.40;;;0.30;99.90;;;;;;5113240;28;20553;-44
2024/01/16 09:25:57;;;;;;;6.73;3.90;;;0.50;99.90;;;;;;5114772;28;20207;-45
2024/01/16 09:28:24;;;;;;;3.93;2.90;;;0.60;93.40;;;;;;5115818;28;20466;-45
2024/01/16 09:30:49;;;;;;;4.77;3.23;;;0.80;42.40;;;;;;5115999;28;20267;-43
2024/01/16 09:33:16;;;;;;;4.80;3.90;;;0.90;20.90;;;;;;5115527;28;20528;-42
2024/01/16 09:35:42;;;;;;;7.73;4.23;;;1.00;29.20;;;;;;5115917;28;20180;-43
2024/01/16 09:38:08;;;;;;;6.37;3.73;;;1.00;1.00;;;;;;5115478;28;20444;-43
2024/01/16 09:40:35;;;;;;;4.20;3.80;;;1.10;1.00;;;;;;5116540;28;20599;-44
2024/01/16 09:43:00;;;;;;;6.70;3.53;;;1.10;1.00;;;;;;5116043;28;20433;-43
2024/01/16 09:45:27;;;;;;;6.07;4.07;;;1.30;1.00;;;;;;5114451;28;20906;-42
2024/01/16 09:47:53;;;;;;;3.70;3.23;;;1.60;5.10;;;;;;5098171;28;20187;-44
2024/01/16 09:50:19;;;;;;;8.67;5.07;;;2.00;1.00;;;;;;5115426;28;20473;-43
2024/01/16 09:52:49;;;;;;;7.53;6.10;;;2.30;1.00;;;;;;5114499;28;20490;-46
2024/01/16 09:55:15;;;;;;;7.90;5.70;;;2.70;1.00;;;;;;5112861;28;20425;-45
2024/01/16 09:57:41;;;;;;;5.90;4.10;;;3.00;1.00;;;;;;5113288;28;20425;-44
2024/01/16 10:00:11;;;;;;;5.30;4.53;;;3.00;1.00;;;;;;5112769;28;20437;-44
2024/01/16 10:02:41;;;;;;;8.93;5.83;;;3.10;1.00;;;;;;5117542;28;20664;-43
2024/01/16 10:05:09;;;;;;;6.80;5.20;;;3.40;1.00;;;;;;5119376;28;20835;-44
2024/01/16 10:07:37;;;;;;;4.33;3.90;;;3.70;1.00;;;;;;5118680;28;20405;-43
2024/01/16 10:10:03;;;;;;;5.53;3.30;;;4.00;1.00;;;;;;5118011;28;20417;-43
2024/01/16 10:12:29;;;;;;;5.93;4.90;;;4.40;1.00;;;;;;5118915;28;20814;-41
2024/01/16 10:14:56;;;;;;;6.03;5.37;;;4.90;1.00;;;;;;5117207;28;20433;-43
2024/01/16 10:17:22;;;;;;;8.53;7.30;;;5.30;1.00;;;;;;5119311;28;20516;-41
2024/01/16 10:19:49;;;;;;;10.50;9.13;;;5.50;1.00;;;;;;5117992;28;20531;-44
2024/01/16 10:22:24;;;;;;;5.07;4.50;;;5.70;1.00;;;;;;5118739;28;20853;-42
2024/01/16 10:25:16;;;;;;;7.43;5.53;;;5.80;1.00;;;;;;5117795;28;20425;-42
2024/01/16 10:27:42;;;;;;;7.53;4.90;;;6.20;1.00;;;;;;5113005;28;20433;-43
2024/01/16 10:30:10;;;;;;;7.23;4.60;;;6.60;1.00;;;;;;5117826;28;20641;-43
2024/01/16 10:32:38;;;;;;;4.50;4.07;;;6.70;1.00;;;;;;5116348;28;20685;-44
2024/01/16 10:35:11;;;;;;;4.60;4.03;;;6.30;1.00;;;;;;5116200;28;20434;-40
2024/01/16 10:37:45;;;;;;;6.10;5.10;;;6.10;1.00;;;;;;5115218;28;20925;-41
2024/01/16 10:40:18;;;;;;;6.07;4.87;;;6.20;1.00;;;;;;5115900;28;20437;-41
2024/01/16 10:42:46;;;;;;;5.80;4.67;;;6.50;1.00;;;;;;5118487;28;20590;-41
2024/01/16 10:45:22;;;;;;;6.80;4.33;;;6.80;1.00;;;;;;5117408;28;20473;-41
2024/01/16 10:47:47;;;;;;;10.47;5.90;;;7.20;1.00;;;;;;5117747;28;20409;-41
2024/01/16 10:50:13;;;;;;;5.00;4.27;;;7.60;1.00;;;;;;5116251;28;20680;-42
2024/01/16 10:52:47;;;;;;;6.73;5.30;;;7.60;1.00;;;;;;5118434;28;20252;-40
2024/01/16 10:55:22;;;;;;;7.73;2.80;;;7.80;1.00;;;;;;5114921;28;20247;-38
2024/01/16 10:57:50;;;;;;;4.37;3.73;;;7.90;1.00;;;;;;5114502;28;20774;-42
2024/01/16 11:00:19;;;;;;;6.00;4.37;;;8.50;1.00;;;;;;5115919;28;20430;-41
2024/01/16 11:03:00;;;;;;;15.10;8.77;;;9.00;1.00;;;;;;5115179;28;20409;-42
2024/01/16 11:05:26;;;;;;;16.07;10.20;;;9.50;1.00;;;;;;5116036;28;20484;-41
2024/01/16 11:07:54;;;;;;;11.50;6.70;;;9.90;1.00;;;;;;5101052;28;20425;-40
2024/01/16 11:10:20;;;;;;;7.63;4.37;;;10.10;1.00;;;;;;5115992;28;20448;-42
2024/01/16 11:12:46;;;;;;;10.03;5.70;;;10.20;1.00;;;;;;5116844;28;20425;-44
2024/01/16 11:15:12;;;;;;;5.07;4.30;;;10.40;1.00;;;;;;5116206;28;20187;-42
2024/01/16 11:17:39;;;;;;;5.23;4.60;;;10.70;1.00;;;;;;5116954;28;20812;-42
2024/01/16 11:20:09;;;;;;;5.63;4.80;;;10.50;1.00;;;;;;5114357;28;20457;-41
2024/01/16 11:22:38;;;;;;;11.70;9.60;;;10.30;1.00;;;;;;5115648;28;20431;-43
2024/01/16 11:25:14;;;;;;;6.87;5.33;;;10.60;1.00;;;;;;5098616;28;20465;-43
2024/01/16 11:27:41;;;;;;;7.40;5.37;;;11.00;1.00;;;;;;5114267;28;20674;-43
2024/01/16 11:30:09;;;;;;;5.00;3.50;;;11.30;1.00;;;;;;5115369;28;20525;-49
2024/01/16 11:32:37;;;;;;;6.90;3.20;;;11.10;1.00;;;;;;5115240;28;20440;-44
2024/01/16 11:35:04;;;;;;;5.60;2.83;;;11.70;1.00;;;;;;5112945;28;20710;-44
2024/01/16 11:37:33;;;;;;;8.23;3.53;;;12.60;99.90;;;;;;5115537;28;20425;-40
2024/01/16 11:40:17;;;;;;;6.10;3.93;;;13.10;1.00;;;;;;5115894;28;20428;-42
2024/01/16 11:42:44;;;;;;;4.07;3.10;;;13.10;1.00;;;;;;5114453;28;20837;-41
2024/01/16 11:45:47;;;;;;;3.70;3.10;;;12.30;1.00;;;;;;5115659;28;20480;-41
2024/01/16 11:48:17;;;;;;;4.47;3.07;;;11.70;1.00;;;;;;5033531;28;20707;-41
2024/01/16 11:50:43;;;;;;;5.33;3.60;;;11.40;1.00;;;;;;5101207;28;20417;-43
2024/01/16 11:53:08;;;;;;;5.40;3.10;;;11.40;1.00;;;;;;5115499;28;20842;-41
2024/01/16 11:55:57;;;;;;;4.60;2.90;;;11.10;1.00;;;;;;5117045;28;20429;-42
2024/01/16 11:58:49;;;;;;;4.53;3.77;;;10.60;1.00;;;;;;5104809;28;20227;-44
2024/01/16 12:01:16;;;;;;;5.13;3.63;;;11.10;1.00;;;;;;5116966;28;20456;-41
2024/01/16 12:03:41;;;;;;;3.10;2.77;;;11.60;1.00;;;;;;5117683;28;20433;-43
2024/01/16 12:06:08;;;;;;;3.37;1.80;;;11.90;1.00;;;;;;5116496;28;20468;-44
2024/01/16 12:08:36;;;;;;;5.83;2.73;;;11.70;1.00;;;;;;5115553;28;20228;-45
2024/01/16 12:11:02;;;;;;;5.43;2.87;;;11.60;1.00;;;;;;5114392;28;20463;-43
2024/01/16 12:13:31;;;;;;;6.43;2.87;;;11.90;1.00;;;;;;5114419;28;20693;-43
2024/01/16 12:16:04;;;;;;;2.63;1.80;;;12.50;1.00;;;;;;5111427;28;20190;-44
2024/01/16 12:18:30;;;;;;;3.30;2.60;;;13.20;1.00;;;;;;5113621;28;20445;-44
2024/01/16 12:20:55;;;;;;;3.40;1.70;;;14.40;1.00;;;;;;5112888;28;20800;-42
2024/01/16 12:23:23;;;;;;;3.60;1.93;;;15.00;1.00;;;;;;5111159;28;20191;-41
2024/01/16 12:25:52;;;;;;;3.90;2.47;;;15.20;1.00;;;;;;5114714;28;20200;-41
2024/01/16 12:28:24;;;;;;;2.73;1.93;;;15.70;1.00;;;;;;5114903;28;20461;-45
2024/01/16 12:30:51;;;;;;;3.17;2.03;;;17.10;1.00;;;;;;5115259;28;20405;-42
2024/01/16 12:33:18;;;;;;;3.70;2.63;;;17.60;1.00;;;;;;5113888;28;20723;-41
2024/01/16 12:35:47;;;;;;;2.37;1.97;;;18.00;1.00;;;;;;5114799;28;20859;-42
2024/01/16 12:38:13;;;;;;;3.30;2.33;;;18.30;1.00;;;;;;5115143;28;20429;-42
2024/01/16 12:40:46;;;;;;;3.53;2.67;;;18.80;1.00;;;;;;5114150;28;20595;-43
2024/01/16 12:43:11;;;;;;;3.53;2.47;;;18.50;1.00;;;;;;5113738;28;20425;-46
2024/01/16 12:45:37;;;;;;;4.27;2.50;;;19.50;1.00;;;;;;5114078;28;20731;-44
2024/01/16 12:48:03;;;;;;;3.23;2.50;;;19.70;1.00;;;;;;5114208;28;20180;-42
2024/01/16 12:50:30;;;;;;;3.17;2.80;;;19.50;1.00;;;;;;5113150;28;20187;-43